createdAt,value
2018-10-07T00:00:56.878Z,77.64
2018-10-07T00:03:26.328Z,77.67
2018-10-07T00:05:55.163Z,78.02
2018-10-07T00:08:24.011Z,78.35
2018-10-07T00:10:53.778Z,78.55
2018-10-07T00:13:22.656Z,78.34
2018-10-07T00:15:51.831Z,78.91
2018-10-07T00:18:20.574Z,79.23
2018-10-07T00:20:49.438Z,78.93
2018-10-07T00:23:19.158Z,79.51
2018-10-07T00:25:48.161Z,80.00
2018-10-07T00:28:17.939Z,80.54
2018-10-07T00:30:46.591Z,80.50
2018-10-07T00:33:16.379Z,80.63
2018-10-07T00:35:45.015Z,80.67
2018-10-07T00:38:13.826Z,81.20
2018-10-07T00:40:43.559Z,81.81
2018-10-07T00:43:12.236Z,81.44
2018-10-07T00:45:41.015Z,81.78
2018-10-07T00:48:10.230Z,81.54
2018-10-07T00:50:39.315Z,82.09
2018-10-07T00:53:08.135Z,82.66
2018-10-07T00:55:37.215Z,83.09
2018-10-07T00:58:06.235Z,82.91
2018-10-07T01:00:35.082Z,83.32
2018-10-07T01:03:04.320Z,83.75
2018-10-07T01:05:33.011Z,83.82
2018-10-07T01:08:01.973Z,84.15
2018-10-07T01:10:31.710Z,84.55
2018-10-07T01:13:01.467Z,84.57
2018-10-07T01:15:30.402Z,84.55
2018-10-07T01:17:59.554Z,84.87
2018-10-07T01:20:28.511Z,85.09
2018-10-07T01:22:58.646Z,85.10
2018-10-07T01:25:27.816Z,85.63
2018-10-07T01:27:56.587Z,86.49
2018-10-07T01:30:25.484Z,86.56
2018-10-07T01:32:55.906Z,86.92
2018-10-07T01:35:24.994Z,86.83
2018-10-07T01:37:53.902Z,87.54
2018-10-07T01:40:23.110Z,87.76
2018-10-07T01:42:51.835Z,88.15
2018-10-07T01:45:20.562Z,88.35
2018-10-07T01:47:49.675Z,88.31
2018-10-07T01:50:18.338Z,88.07
2018-10-07T01:52:47.635Z,88.98
2018-10-07T01:55:16.783Z,89.13
2018-10-07T01:57:45.793Z,89.46
2018-10-07T02:00:14.611Z,89.42
2018-10-07T02:02:43.751Z,89.00
2018-10-07T02:05:12.494Z,89.59
2018-10-07T02:07:41.263Z,90.38
2018-10-07T02:10:10.231Z,90.28
2018-10-07T02:12:39.042Z,91.57
2018-10-07T02:15:07.923Z,90.57
2018-10-07T02:17:37.272Z,91.59
2018-10-07T02:20:06.635Z,91.16
2018-10-07T02:22:35.635Z,91.61
2018-10-07T02:25:05.427Z,91.90
2018-10-07T02:27:34.288Z,91.73
2018-10-07T02:30:03.287Z,91.49
2018-10-07T02:32:32.251Z,91.04
2018-10-07T02:35:00.971Z,91.99
2018-10-07T02:37:29.777Z,91.72
2018-10-07T02:39:58.632Z,91.54
2018-10-07T02:42:27.519Z,91.34
2018-10-07T02:44:56.933Z,91.37
2018-10-07T02:47:25.916Z,91.19
2018-10-07T02:49:55.143Z,91.01
2018-10-07T02:52:30.056Z,90.61
2018-10-07T02:54:58.864Z,90.49
2018-10-07T02:57:28.319Z,91.30
2018-10-07T02:59:57.168Z,90.67
2018-10-07T03:02:25.860Z,91.06
2018-10-07T03:04:54.976Z,90.92
2018-10-07T03:07:24.569Z,91.14
2018-10-07T03:09:53.582Z,91.25
2018-10-07T03:12:22.592Z,91.29
2018-10-07T03:14:51.761Z,91.25
2018-10-07T03:17:20.579Z,91.97
2018-10-07T03:19:49.907Z,91.88
2018-10-07T03:22:19.078Z,92.05
2018-10-07T03:24:48.845Z,92.60
2018-10-07T03:27:17.829Z,92.24
2018-10-07T03:29:47.719Z,92.70
2018-10-07T03:32:16.635Z,92.57
2018-10-07T03:34:45.379Z,92.83
2018-10-07T03:37:15.671Z,92.33
2018-10-07T03:39:44.598Z,92.76
2018-10-07T03:42:13.395Z,92.88
2018-10-07T03:44:42.320Z,92.07
2018-10-07T03:47:11.528Z,91.82
2018-10-07T03:49:40.970Z,92.22
2018-10-07T03:52:10.126Z,92.26
2018-10-07T03:54:39.224Z,92.37
2018-10-07T03:57:08.223Z,92.77
2018-10-07T03:59:37.682Z,92.19
2018-10-07T04:02:06.830Z,92.37
2018-10-07T04:04:35.866Z,92.13
2018-10-07T04:07:05.564Z,91.49
2018-10-07T04:09:34.757Z,91.43
2018-10-07T04:12:04.115Z,91.53
2018-10-07T04:14:33.346Z,92.01
2018-10-07T04:17:02.514Z,92.35
2018-10-07T04:19:31.526Z,92.45
2018-10-07T04:22:01.003Z,92.94
2018-10-07T04:24:31.632Z,92.91
2018-10-07T04:27:00.620Z,93.38
2018-10-07T04:29:29.706Z,93.08
2018-10-07T04:31:58.851Z,93.80
2018-10-07T04:34:27.914Z,93.55
2018-10-07T04:36:57.338Z,94.04
2018-10-07T04:39:26.458Z,93.68
2018-10-07T04:41:55.370Z,92.71
2018-10-07T04:44:24.756Z,91.36
2018-10-07T04:46:53.783Z,89.56
2018-10-07T04:49:22.947Z,87.64
2018-10-07T04:51:52.166Z,85.61
2018-10-07T04:54:21.304Z,83.41
2018-10-07T04:56:50.362Z,81.58
2018-10-07T04:59:20.025Z,79.90
2018-10-07T05:01:49.238Z,78.30
2018-10-07T05:04:18.807Z,77.05
2018-10-07T05:06:48.040Z,75.45
2018-10-07T05:09:17.229Z,73.81
2018-10-07T05:11:46.578Z,73.05
2018-10-07T05:14:16.041Z,70.10
2018-10-07T05:16:48.901Z,68.95
2018-10-07T05:19:18.241Z,66.72
2018-10-07T05:21:47.544Z,64.12
2018-10-07T05:24:17.179Z,61.67
2018-10-07T05:26:46.412Z,59.56
2018-10-07T05:29:15.639Z,58.99
2018-10-07T05:31:44.925Z,56.46
2018-10-07T05:34:13.970Z,55.36
2018-10-07T05:36:43.243Z,54.69
2018-10-07T05:39:13.634Z,54.83
2018-10-07T05:41:42.871Z,54.24
2018-10-07T05:44:12.214Z,53.52
2018-10-07T05:46:41.581Z,53.38
2018-10-07T05:49:11.079Z,52.05
2018-10-07T05:51:40.157Z,50.26
2018-10-07T05:54:09.483Z,50.64
2018-10-07T05:56:38.563Z,49.60
2018-10-07T05:59:08.687Z,49.54
2018-10-07T06:01:42.876Z,51.97
2018-10-07T06:04:48.900Z,52.53
2018-10-07T06:07:18.515Z,49.62
2018-10-07T06:09:47.888Z,47.57
2018-10-07T06:12:17.188Z,47.58
2018-10-07T06:14:57.643Z,47.48
2018-10-07T06:17:26.851Z,45.31
2018-10-07T06:19:56.039Z,44.14
2018-10-07T06:22:25.877Z,44.26
2018-10-07T06:24:55.123Z,43.75
2018-10-07T06:27:24.284Z,44.74
2018-10-07T06:29:53.593Z,43.37
2018-10-07T06:32:22.726Z,42.14
2018-10-07T06:34:51.954Z,40.76
2018-10-07T06:37:21.304Z,43.11
2018-10-07T06:39:50.444Z,44.06
2018-10-07T06:42:19.564Z,43.77
2018-10-07T06:44:48.814Z,43.78
2018-10-07T06:47:17.937Z,43.63
2018-10-07T06:49:47.191Z,44.96
2018-10-07T06:52:16.542Z,43.69
2018-10-07T06:54:45.626Z,43.97
2018-10-07T06:57:14.821Z,44.13
2018-10-07T06:59:44.179Z,46.52
2018-10-07T07:02:13.291Z,45.14
2018-10-07T07:04:42.472Z,43.56
2018-10-07T07:07:11.904Z,44.24
2018-10-07T07:09:41.122Z,42.56
2018-10-07T07:12:10.351Z,41.32
2018-10-07T07:14:39.577Z,41.55
2018-10-07T07:17:08.460Z,42.63
2018-10-07T07:19:37.693Z,42.93
2018-10-07T07:22:07.351Z,42.62
2018-10-07T07:24:36.379Z,44.58
2018-10-07T07:27:05.654Z,43.23
2018-10-07T07:29:35.105Z,42.40
2018-10-07T07:32:04.231Z,42.24
2018-10-07T07:34:33.344Z,41.65
2018-10-07T07:37:02.943Z,41.42
2018-10-07T07:39:32.067Z,40.67
2018-10-07T07:42:02.286Z,42.91
2018-10-07T07:44:31.754Z,42.20
2018-10-07T07:47:00.859Z,42.09
2018-10-07T07:49:30.004Z,41.55
2018-10-07T07:51:59.105Z,42.92
2018-10-07T07:54:28.112Z,43.79
2018-10-07T07:56:57.242Z,46.83
2018-10-07T07:59:26.573Z,44.89
2018-10-07T08:01:55.598Z,43.78
2018-10-07T08:04:24.796Z,46.00
2018-10-07T08:06:54.316Z,44.82
2018-10-07T08:09:23.415Z,44.59
2018-10-07T08:11:52.594Z,45.32
2018-10-07T08:14:21.847Z,44.52
2018-10-07T08:16:51.103Z,43.80
2018-10-07T08:19:20.387Z,46.55
2018-10-07T08:21:49.894Z,45.83
2018-10-07T08:24:18.906Z,46.23
2018-10-07T08:26:48.099Z,45.96
2018-10-07T08:29:17.471Z,47.33
2018-10-07T08:31:46.779Z,47.97
2018-10-07T08:34:15.951Z,47.57
2018-10-07T08:36:45.107Z,48.34
2018-10-07T08:39:14.210Z,48.76
2018-10-07T08:41:43.340Z,48.44
2018-10-07T08:44:12.615Z,47.53
2018-10-07T08:46:43.527Z,48.48
2018-10-07T08:49:12.873Z,48.43
2018-10-07T08:51:42.570Z,48.70
2018-10-07T08:54:11.860Z,48.04
2018-10-07T08:56:41.559Z,48.76
2018-10-07T08:59:10.903Z,49.04
2018-10-07T09:01:41.043Z,49.17
2018-10-07T09:04:12.069Z,49.44
2018-10-07T09:06:43.472Z,49.89
2018-10-07T09:09:13.340Z,49.80
2018-10-07T09:11:45.551Z,49.67
2018-10-07T09:14:14.998Z,48.60
2018-10-07T09:16:44.167Z,48.21
2018-10-07T09:19:13.498Z,48.21
2018-10-07T09:21:46.126Z,47.94
2018-10-07T09:24:16.253Z,47.92
2018-10-07T09:26:45.676Z,47.98
2018-10-07T09:29:17.141Z,48.47
2018-10-07T09:31:46.319Z,47.44
2018-10-07T09:34:15.555Z,47.08
2018-10-07T09:36:44.951Z,47.21
2018-10-07T09:39:14.007Z,48.50
2018-10-07T09:41:43.146Z,47.90
2018-10-07T09:44:12.588Z,48.16
2018-10-07T09:46:42.199Z,49.16
2018-10-07T09:49:11.503Z,47.26
2018-10-07T09:51:41.151Z,47.43
2018-10-07T09:54:10.706Z,46.22
2018-10-07T09:56:40.007Z,45.90
2018-10-07T09:59:10.775Z,44.44
2018-10-07T10:01:40.059Z,44.01
2018-10-07T10:04:13.109Z,43.83
2018-10-07T10:06:42.194Z,44.03
2018-10-07T10:09:15.614Z,44.66
2018-10-07T10:11:44.530Z,45.50
2018-10-07T10:14:13.622Z,46.00
2018-10-07T10:16:50.750Z,45.97
2018-10-07T10:19:26.561Z,46.67
2018-10-07T10:23:06.066Z,46.28
2018-10-07T10:25:57.847Z,45.52
2018-10-07T10:28:43.742Z,45.32
2018-10-07T10:31:16.511Z,43.92
2018-10-07T10:33:49.611Z,43.37
2018-10-07T10:37:29.262Z,43.09
2018-10-07T10:40:00.768Z,42.95
2018-10-07T10:43:49.499Z,41.91
2018-10-07T10:46:27.971Z,41.59
2018-10-07T10:49:07.116Z,41.44
2018-10-07T10:51:45.034Z,40.74
2018-10-07T10:54:23.464Z,40.97
2018-10-07T10:56:57.787Z,41.24
2018-10-07T11:00:34.441Z,41.86
2018-10-07T11:03:18.288Z,41.24
2018-10-07T11:07:57.329Z,40.93
2018-10-07T11:10:31.979Z,40.87
2018-10-07T11:13:19.052Z,39.44
2018-10-07T11:16:53.839Z,41.56
2018-10-07T11:19:28.024Z,41.99
2018-10-07T11:22:11.892Z,40.68
2018-10-07T11:24:49.148Z,39.85
2018-10-07T11:27:30.470Z,39.02
2018-10-07T11:32:14.475Z,38.55
2018-10-07T11:35:02.100Z,38.51
2018-10-07T11:37:53.066Z,38.52
2018-10-07T11:42:37.026Z,39.38
2018-10-07T11:45:13.155Z,40.82
2018-10-07T11:47:50.739Z,40.34
2018-10-07T11:50:28.691Z,39.10
2018-10-07T11:53:04.833Z,40.22
2018-10-07T11:55:34.037Z,39.98
2018-10-07T11:58:03.340Z,40.66
2018-10-07T12:00:33.007Z,39.90
2018-10-07T12:03:02.212Z,39.89
2018-10-07T12:05:31.026Z,38.95
2018-10-07T12:07:59.939Z,38.26
2018-10-07T12:10:28.867Z,38.63
2018-10-07T12:12:57.912Z,39.33
2018-10-07T12:15:26.952Z,38.98
2018-10-07T12:17:55.689Z,38.53
2018-10-07T12:20:24.723Z,38.31
2018-10-07T12:22:53.939Z,37.81
2018-10-07T12:25:22.978Z,38.48
2018-10-07T12:27:51.759Z,37.84
2018-10-07T12:30:21.035Z,36.81
2018-10-07T12:32:49.855Z,36.40
2018-10-07T12:35:19.538Z,35.74
2018-10-07T12:37:48.863Z,35.47
2018-10-07T12:40:18.060Z,35.88
2018-10-07T12:42:47.208Z,35.92
2018-10-07T12:45:16.337Z,35.32
2018-10-07T12:47:45.454Z,35.55
2018-10-07T12:50:14.642Z,35.87
2018-10-07T12:52:44.192Z,34.97
2018-10-07T12:55:13.169Z,33.52
2018-10-07T12:57:42.164Z,33.47
2018-10-07T13:00:11.743Z,32.88
2018-10-07T13:02:40.967Z,32.58
2018-10-07T13:05:09.865Z,32.68
2018-10-07T13:07:38.783Z,31.97
2018-10-07T13:10:08.142Z,31.72
2018-10-07T13:12:37.135Z,32.02
2018-10-07T13:15:06.979Z,32.22
2018-10-07T13:17:36.083Z,31.70
2018-10-07T13:20:05.063Z,32.09
2018-10-07T13:22:34.829Z,32.19
2018-10-07T13:25:03.760Z,32.47
2018-10-07T13:27:32.760Z,32.53
2018-10-07T13:30:01.736Z,32.21
2018-10-07T13:32:31.132Z,32.05
2018-10-07T13:35:00.478Z,31.94
2018-10-07T13:37:29.989Z,31.80
2018-10-07T13:39:59.126Z,30.50
2018-10-07T13:42:28.255Z,31.10
2018-10-07T13:44:57.438Z,31.36
2018-10-07T13:47:26.668Z,31.42
2018-10-07T13:49:56.172Z,32.03
2018-10-07T13:52:24.938Z,31.72
2018-10-07T13:54:53.955Z,31.60
2018-10-07T13:57:23.462Z,31.87
2018-10-07T13:59:52.558Z,31.99
2018-10-07T14:02:21.448Z,32.10
2018-10-07T14:04:50.670Z,31.22
2018-10-07T14:07:19.431Z,31.49
2018-10-07T14:09:48.939Z,31.56
2018-10-07T14:12:18.360Z,31.49
2018-10-07T14:14:47.187Z,31.08
2018-10-07T14:17:16.433Z,31.59
2018-10-07T14:19:46.038Z,32.75
2018-10-07T14:22:15.286Z,32.63
2018-10-07T14:24:44.335Z,32.31
2018-10-07T14:27:13.703Z,33.03
2018-10-07T14:29:42.539Z,32.84
2018-10-07T14:32:11.536Z,32.93
2018-10-07T14:34:40.640Z,33.04
2018-10-07T14:37:09.830Z,32.78
2018-10-07T14:39:39.137Z,32.91
2018-10-07T14:42:08.639Z,32.98
2018-10-07T14:44:37.819Z,32.98
2018-10-07T14:47:06.672Z,33.23
2018-10-07T14:49:35.925Z,33.15
2018-10-07T14:52:04.891Z,32.88
2018-10-07T14:54:33.716Z,33.27
2018-10-07T14:57:03.228Z,32.91
2018-10-07T14:59:32.194Z,32.54
2018-10-07T15:02:01.607Z,32.63
2018-10-07T15:04:30.524Z,32.71
2018-10-07T15:06:59.382Z,33.03
2018-10-07T15:09:29.036Z,32.89
2018-10-07T15:11:58.329Z,33.09
2018-10-07T15:14:27.512Z,32.98
2018-10-07T15:16:56.402Z,33.02
2018-10-07T15:19:25.231Z,33.13
2018-10-07T15:21:54.287Z,33.66
2018-10-07T15:24:23.327Z,33.79
2018-10-07T15:26:52.543Z,34.18
2018-10-07T15:29:21.480Z,36.29
2018-10-07T15:31:50.412Z,37.18
2018-10-07T15:34:19.581Z,38.44
2018-10-07T15:36:48.756Z,39.14
2018-10-07T15:39:18.095Z,39.91
2018-10-07T15:41:47.522Z,39.96
2018-10-07T15:44:16.296Z,40.79
2018-10-07T15:46:45.443Z,41.05
2018-10-07T15:49:14.680Z,41.71
2018-10-07T15:51:44.369Z,42.38
2018-10-07T15:54:13.352Z,43.06
2018-10-07T15:56:42.120Z,41.61
2018-10-07T15:59:11.031Z,41.86
2018-10-07T16:01:39.918Z,41.69
2018-10-07T16:04:09.442Z,42.80
2018-10-07T16:06:38.320Z,42.83
2018-10-07T16:09:09.054Z,42.77
2018-10-07T16:11:38.343Z,43.17
2018-10-07T16:14:07.226Z,42.87
2018-10-07T16:16:36.704Z,43.15
2018-10-07T16:19:05.903Z,44.15
2018-10-07T16:21:35.052Z,43.96
2018-10-07T16:24:04.260Z,44.02
2018-10-07T16:26:33.828Z,44.43
2018-10-07T16:29:03.571Z,44.56
2018-10-07T16:31:32.662Z,45.28
2018-10-07T16:34:01.562Z,45.52
2018-10-07T16:36:30.570Z,45.77
2018-10-07T16:38:59.435Z,46.04
2018-10-07T16:41:28.415Z,46.33
2018-10-07T16:43:57.444Z,46.17
2018-10-07T16:46:26.863Z,46.48
2018-10-07T16:48:55.924Z,46.76
2018-10-07T16:51:24.738Z,46.90
2018-10-07T16:53:54.054Z,47.12
2018-10-07T16:56:23.131Z,47.67
2018-10-07T16:58:52.130Z,47.92
2018-10-07T17:01:21.419Z,47.88
2018-10-07T17:03:50.127Z,47.60
2018-10-07T17:06:19.532Z,48.36
2018-10-07T17:08:49.051Z,48.27
2018-10-07T17:11:18.032Z,48.16
2018-10-07T17:13:46.927Z,48.93
2018-10-07T17:16:16.346Z,49.13
2018-10-07T17:18:45.516Z,49.81
2018-10-07T17:21:14.689Z,50.41
2018-10-07T17:23:43.930Z,50.66
2018-10-07T17:26:12.760Z,51.14
2018-10-07T17:28:41.895Z,51.42
2018-10-07T17:31:10.848Z,51.29
2018-10-07T17:33:40.005Z,51.47
2018-10-07T17:36:09.106Z,51.93
2018-10-07T17:38:38.395Z,52.05
2018-10-07T17:41:07.422Z,51.99
2018-10-07T17:43:36.383Z,52.25
2018-10-07T17:46:06.625Z,52.32
2018-10-07T17:48:35.837Z,52.85
2018-10-07T17:51:04.694Z,52.89
2018-10-07T17:53:33.823Z,52.96
2018-10-07T17:56:02.674Z,52.97
2018-10-07T17:58:31.582Z,53.07
2018-10-07T18:01:00.391Z,54.39
2018-10-07T18:03:29.371Z,54.03
2018-10-07T18:05:58.223Z,54.38
2018-10-07T18:08:27.555Z,54.30
2018-10-07T18:10:57.438Z,54.71
2018-10-07T18:13:26.355Z,54.53
2018-10-07T18:15:55.472Z,54.55
2018-10-07T18:18:24.455Z,54.83
2018-10-07T18:20:53.239Z,54.60
2018-10-07T18:23:22.602Z,54.78
2018-10-07T18:25:51.499Z,54.66
2018-10-07T18:28:20.328Z,54.02
2018-10-07T18:30:50.087Z,53.71
2018-10-07T18:33:18.922Z,53.98
2018-10-07T18:35:47.909Z,54.02
2018-10-07T18:38:17.408Z,53.68
2018-10-07T18:40:46.154Z,54.52
2018-10-07T18:43:15.281Z,54.64
2018-10-07T18:45:44.434Z,54.84
2018-10-07T18:48:13.527Z,55.05
2018-10-07T18:50:42.474Z,55.60
2018-10-07T18:53:11.736Z,55.54
2018-10-07T18:55:41.006Z,55.44
2018-10-07T18:58:09.688Z,55.80
2018-10-07T19:00:39.118Z,55.86
2018-10-07T19:03:08.083Z,56.19
2018-10-07T19:05:36.951Z,56.55
2018-10-07T19:08:05.989Z,57.03
2018-10-07T19:10:35.043Z,57.38
2018-10-07T19:13:03.946Z,57.54
2018-10-07T19:15:33.264Z,57.92
2018-10-07T19:18:02.355Z,58.46
2018-10-07T19:20:31.260Z,58.72
2018-10-07T19:23:00.370Z,58.42
2018-10-07T19:25:29.455Z,58.68
2018-10-07T19:27:58.451Z,59.18
2018-10-07T19:30:27.667Z,59.93
2018-10-07T19:32:56.751Z,59.64
2018-10-07T19:35:25.845Z,59.27
2018-10-07T19:37:54.866Z,59.68
2018-10-07T19:40:23.826Z,60.33
2018-10-07T19:42:52.829Z,59.91
2018-10-07T19:45:21.919Z,60.03
2018-10-07T19:47:50.974Z,59.93
2018-10-07T19:50:19.802Z,60.27
2018-10-07T19:52:48.876Z,59.92
2018-10-07T19:55:18.974Z,59.96
2018-10-07T19:57:47.850Z,59.74
2018-10-07T20:00:17.655Z,60.03
2018-10-07T20:02:46.684Z,59.94
2018-10-07T20:05:15.774Z,59.74
2018-10-07T20:07:44.995Z,60.25
2018-10-07T20:10:13.912Z,60.54
2018-10-07T20:12:42.866Z,60.96
2018-10-07T20:15:12.179Z,60.84
2018-10-07T20:17:40.987Z,61.07
2018-10-07T20:20:09.903Z,61.43
2018-10-07T20:22:38.971Z,61.03
2018-10-07T20:25:07.990Z,60.95
2018-10-07T20:27:37.079Z,61.26
2018-10-07T20:30:06.359Z,61.32
2018-10-07T20:32:35.262Z,61.71
2018-10-07T20:35:04.100Z,61.51
2018-10-07T20:37:33.488Z,61.50
2018-10-07T20:40:02.567Z,62.13
2018-10-07T20:42:31.459Z,62.00
2018-10-07T20:45:00.488Z,62.07
2018-10-07T20:47:29.550Z,62.29
2018-10-07T20:49:58.430Z,62.27
2018-10-07T20:52:29.625Z,62.50
2018-10-07T20:54:58.575Z,62.54
2018-10-07T20:57:27.679Z,62.68
2018-10-07T20:59:56.703Z,63.24
2018-10-07T21:02:25.974Z,63.27
2018-10-07T21:04:54.938Z,63.38
2018-10-07T21:07:24.236Z,64.49
2018-10-07T21:09:53.149Z,65.19
2018-10-07T21:12:21.996Z,65.03
2018-10-07T21:14:51.410Z,63.28
2018-10-07T21:17:20.439Z,64.10
2018-10-07T21:19:49.335Z,65.41
2018-10-07T21:22:18.555Z,66.10
2018-10-07T21:24:47.544Z,67.16
2018-10-07T21:27:16.610Z,67.73
2018-10-07T21:29:45.975Z,68.28
2018-10-07T21:32:14.926Z,68.94
2018-10-07T21:34:43.715Z,68.65
2018-10-07T21:37:12.690Z,69.11
2018-10-07T21:39:41.819Z,69.99
2018-10-07T21:42:10.597Z,70.79
2018-10-07T21:44:39.675Z,71.42
2018-10-07T21:47:08.530Z,71.73
2018-10-07T21:49:37.927Z,71.83
2018-10-07T21:52:07.079Z,72.32
2018-10-07T21:54:36.034Z,72.24
2018-10-07T21:57:04.919Z,71.86
2018-10-07T21:59:33.880Z,72.11
2018-10-07T22:02:03.078Z,72.20
2018-10-07T22:04:33.189Z,72.32
2018-10-07T22:07:03.613Z,72.59
2018-10-07T22:09:32.402Z,72.70
2018-10-07T22:12:01.961Z,72.56
2018-10-07T22:14:31.263Z,72.84
2018-10-07T22:17:00.135Z,72.83
2018-10-07T22:19:28.990Z,73.03
2018-10-07T22:21:58.012Z,72.60
2018-10-07T22:24:27.199Z,72.89
2018-10-07T22:26:56.335Z,73.14
2018-10-07T22:29:25.863Z,73.35
2018-10-07T22:31:54.895Z,73.32
2018-10-07T22:34:24.068Z,74.38
2018-10-07T22:36:53.403Z,74.65
2018-10-07T22:39:22.544Z,75.17
2018-10-07T22:41:51.638Z,75.12
2018-10-07T22:44:21.115Z,74.89
2018-10-07T22:46:50.144Z,75.75
2018-10-07T22:49:19.382Z,75.90
2018-10-07T22:51:48.599Z,75.83
2018-10-07T22:54:17.684Z,76.53
2018-10-07T22:56:46.854Z,76.02
2018-10-07T22:59:16.339Z,75.81
2018-10-07T23:01:45.452Z,76.56
2018-10-07T23:04:14.595Z,76.59
2018-10-07T23:06:44.207Z,76.35
2018-10-07T23:09:13.915Z,76.26
2018-10-07T23:11:43.438Z,77.03
2018-10-07T23:14:12.931Z,77.07
2018-10-07T23:16:42.222Z,77.96
2018-10-07T23:19:11.412Z,77.42
2018-10-07T23:21:40.875Z,78.03
2018-10-07T23:24:09.967Z,77.25
2018-10-07T23:26:39.096Z,77.54
2018-10-07T23:29:08.447Z,77.12
2018-10-07T23:31:37.353Z,77.16
2018-10-07T23:34:06.452Z,77.49
2018-10-07T23:36:35.755Z,77.84
2018-10-07T23:39:06.445Z,77.96
2018-10-07T23:41:35.479Z,78.70
2018-10-07T23:44:04.764Z,78.20
2018-10-07T23:46:33.883Z,78.55
2018-10-07T23:49:03.139Z,79.05
2018-10-07T23:51:32.531Z,79.41
2018-10-07T23:54:02.130Z,78.76
2018-10-07T23:56:31.223Z,78.75
2018-10-07T23:59:00.751Z,78.47
